Time;durP1;ratioP1;P1;durP2;ratioP2;P2;SDS_P1;SDS_P2;PMS_P1;PMS_P2;Temp;Humidity;BMP_temperature;BMP_pressure;BME280_temperature;BME280_humidity;BME280_pressure;Samples;Min_cycle;Max_cycle;Signal;HPM_P1;HPM_P2
2023/05/30 04:04:40;;;;;;;9.75;7.38;;;;;;;12.63;100.00;95466.38;4882798;29;20048;-86
2023/05/30 04:07:07;;;;;;;9.07;7.72;;;;;;;12.79;100.00;95464.69;4866195;29;20045;-89
2023/05/30 04:09:32;;;;;;;8.07;7.30;;;;;;;12.83;100.00;95451.19;4854240;29;20036;-88
2023/05/30 04:11:58;;;;;;;8.45;7.72;;;;;;;12.97;100.00;95470.44;4866835;29;20040;-85
2023/05/30 04:14:23;;;;;;;9.75;7.50;;;;;;;13.04;100.00;95466.13;4863402;29;20153;-83
2023/05/30 04:16:48;;;;;;;10.25;8.07;;;;;;;12.96;100.00;95455.81;4834217;29;20051;-85
2023/05/30 04:19:15;;;;;;;19.23;14.77;;;;;;;13.01;100.00;95472.50;4864003;29;20484;-91
2023/05/30 04:21:40;;;;;;;15.93;13.77;;;;;;;13.05;100.00;95458.19;4853110;29;20025;-89
2023/05/30 04:24:07;;;;;;;13.23;11.93;;;;;;;13.19;100.00;95464.47;4847326;29;20037;-87
2023/05/30 04:26:33;;;;;;;13.57;12.48;;;;;;;13.27;100.00;95460.97;4857148;29;20033;-88
2023/05/30 04:28:58;;;;;;;10.98;9.95;;;;;;;13.24;100.00;95467.34;4869442;29;20467;-91
2023/05/30 04:31:24;;;;;;;9.73;8.82;;;;;;;13.26;100.00;95464.56;4863548;29;20025;-89
2023/05/30 04:33:51;;;;;;;11.40;9.57;;;;;;;13.34;100.00;95470.50;4834333;29;20037;-90
2023/05/30 04:36:19;;;;;;;9.77;8.80;;;;;;;13.36;100.00;95460.72;4852177;29;20499;-87
2023/05/30 04:38:46;;;;;;;12.85;10.52;;;;;;;13.36;100.00;95460.72;4853223;29;20535;-87
2023/05/30 04:41:19;;;;;;;11.07;10.02;;;;;;;13.39;100.00;95473.38;4853104;29;20048;-89
2023/05/30 04:43:54;;;;;;;8.90;8.10;;;;;;;13.39;100.00;95481.19;4841793;29;20491;-87
2023/05/30 04:46:27;;;;;;;9.30;8.40;;;;;;;13.28;100.00;95515.44;4869662;29;20366;-90
2023/05/30 04:48:55;;;;;;;9.48;8.65;;;;;;;13.22;100.00;95510.13;4870231;29;20036;-90
2023/05/30 04:51:21;;;;;;;8.68;7.88;;;;;;;13.37;100.00;95518.78;4854424;29;20069;-91
2023/05/30 04:53:47;;;;;;;8.88;8.10;;;;;;;13.45;100.00;95526.53;4846678;29;20025;-88
2023/05/30 04:56:13;;;;;;;8.40;7.80;;;;;;;13.52;100.00;95522.25;4868381;29;20226;-88
2023/05/30 04:58:38;;;;;;;8.48;7.78;;;;;;;13.55;100.00;95506.31;4839074;29;20606;-87
2023/05/30 05:01:04;;;;;;;9.55;8.60;;;;;;;13.60;100.00;95512.59;4865911;29;20072;-89
2023/05/30 05:03:29;;;;;;;10.63;9.82;;;;;;;13.65;100.00;95509.44;4849640;29;20087;-87
2023/05/30 05:05:55;;;;;;;9.57;8.68;;;;;;;13.74;100.00;95500.59;4869327;29;20032;-90
2023/05/30 05:08:20;;;;;;;10.50;9.07;;;;;;;13.82;100.00;95486.69;4869220;29;20698;-90
2023/05/30 05:10:46;;;;;;;11.88;9.40;;;;;;;13.95;100.00;95489.50;4863690;29;20041;-87
2023/05/30 05:13:12;;;;;;;9.48;8.57;;;;;;;14.03;100.00;95474.59;4865018;29;20715;-87
2023/05/30 05:15:37;;;;;;;12.75;8.60;;;;;;;13.99;100.00;95446.50;4867197;29;20051;-89
2023/05/30 05:18:02;;;;;;;9.55;8.18;;;;;;;14.19;100.00;95437.16;4852322;29;20376;-87
2023/05/30 05:20:28;;;;;;;8.82;7.88;;;;;;;14.30;100.00;95422.84;4852469;29;20427;-87
2023/05/30 05:22:55;;;;;;;11.57;8.27;;;;;;;14.46;100.00;95397.41;4850162;29;20103;-87
2023/05/30 05:25:21;;;;;;;12.90;8.85;;;;;;;14.43;100.00;95329.22;4849575;29;20040;-86
2023/05/30 05:27:47;;;;;;;9.32;8.40;;;;;;;14.57;100.00;95307.50;4854360;29;20116;-86
2023/05/30 05:30:12;;;;;;;11.98;9.30;;;;;;;14.53;100.00;95251.53;4878839;29;20498;-86
2023/05/30 05:32:38;;;;;;;9.55;8.57;;;;;;;14.73;100.00;95226.44;4855999;29;20111;-86
2023/05/30 05:35:05;;;;;;;10.43;8.73;;;;;;;14.76;100.00;95199.97;4854948;29;20033;-87
2023/05/30 05:37:30;;;;;;;9.35;8.50;;;;;;;14.67;100.00;95191.47;4889624;29;20051;-93
2023/05/30 05:39:56;;;;;;;14.40;8.02;;;;;;;14.65;100.00;95190.88;4871545;29;20029;-89
2023/05/30 05:42:21;;;;;;;13.98;9.20;;;;;;;14.88;100.00;95197.63;4862192;29;20029;-86
2023/05/30 05:44:47;;;;;;;12.48;9.52;;;;;;;14.67;100.00;95172.44;4869625;29;20029;-87
2023/05/30 05:47:12;;;;;;;9.93;8.75;;;;;;;14.96;100.00;95180.03;4843505;29;20033;-88
2023/05/30 05:49:38;;;;;;;12.82;8.40;;;;;;;15.20;100.00;95176.97;4853695;29;20525;-88
2023/05/30 05:52:04;;;;;;;9.43;8.45;;;;;;;15.37;100.00;95167.00;4841772;29;20235;-86
2023/05/30 05:54:29;;;;;;;9.30;8.02;;;;;;;15.47;100.00;95135.31;4865282;29;20028;-90
2023/05/30 05:56:55;;;;;;;10.55;9.55;;;;;;;15.48;100.00;95095.16;4869839;29;20032;-89
2023/05/30 05:59:20;;;;;;;11.00;9.95;;;;;;;15.35;100.00;95071.63;4884067;29;20041;-89
2023/05/30 06:01:45;;;;;;;12.43;11.05;;;;;;;15.51;100.00;95086.97;4869198;29;20512;-86
2023/05/30 06:04:11;;;;;;;11.00;9.02;;;;;;;15.49;100.00;95089.75;4843876;29;20824;-87
2023/05/30 06:06:37;;;;;;;9.98;8.82;;;;;;;15.47;100.00;95080.50;4837873;29;20612;-86
2023/05/30 06:09:03;;;;;;;11.25;8.55;;;;;;;15.38;100.00;95092.13;4864273;29;20041;-87
2023/05/30 06:11:29;;;;;;;10.10;9.07;;;;;;;15.36;100.00;95115.78;4868417;29;20646;-89
2023/05/30 06:13:54;;;;;;;10.55;9.65;;;;;;;15.22;100.00;95108.91;4874511;29;20119;-88
2023/05/30 06:16:20;;;;;;;10.45;9.48;;;;;;;15.46;100.00;95147.56;4846190;29;20037;-90
2023/05/30 06:18:45;;;;;;;12.65;9.65;;;;;;;15.43;100.00;95140.13;4837776;29;20029;-87
2023/05/30 06:21:11;;;;;;;9.93;9.00;;;;;;;15.58;100.00;95158.25;4856781;29;20036;-87
2023/05/30 06:23:37;;;;;;;10.90;9.60;;;;;;;15.39;100.00;95180.66;4852605;29;20097;-87
2023/05/30 06:26:02;;;;;;;10.10;9.10;;;;;;;15.41;100.00;95196.13;4864048;29;20040;-89
2023/05/30 06:28:28;;;;;;;11.18;10.15;;;;;;;15.64;100.00;95188.81;4848819;29;20512;-86
2023/05/30 06:30:53;;;;;;;11.15;9.70;;;;;;;15.59;100.00;95171.13;4867653;29;20071;-90
2023/05/30 06:33:20;;;;;;;10.57;9.48;;;;;;;15.92;100.00;95139.06;4830345;29;20037;-86
2023/05/30 06:35:46;;;;;;;10.63;9.45;;;;;;;16.19;100.00;95106.72;4829849;29;20504;-86
2023/05/30 06:38:12;;;;;;;14.60;10.00;;;;;;;15.97;100.00;95084.41;4847006;29;20039;-85
2023/05/30 06:40:37;;;;;;;9.00;8.20;;;;;;;16.25;100.00;95045.78;4866875;29;20029;-86
2023/05/30 06:43:04;;;;;;;9.48;8.68;;;;;;;16.47;100.00;94983.63;4838215;29;20229;-86
2023/05/30 06:45:30;;;;;;;8.50;7.68;;;;;;;16.74;100.00;94961.63;4855404;29;20035;-86
2023/05/30 06:47:55;;;;;;;18.75;10.02;;;;;;;17.21;100.00;94948.06;4869405;29;20462;-85
2023/05/30 06:50:21;;;;;;;8.30;7.20;;;;;;;17.42;100.00;94918.13;4848636;29;20048;-86
2023/05/30 06:52:46;;;;;;;8.30;7.55;;;;;;;17.18;100.00;94930.16;4864781;29;20036;-84
2023/05/30 06:55:14;;;;;;;7.90;7.22;;;;;;;17.06;100.00;94933.66;4836686;29;20044;-87
2023/05/30 06:57:40;;;;;;;11.10;8.02;;;;;;;16.76;100.00;94933.44;4847702;29;20030;-88
2023/05/30 07:00:06;;;;;;;8.15;7.45;;;;;;;16.88;100.00;94952.69;4851720;29;20033;-90
2023/05/30 07:02:31;;;;;;;8.27;7.63;;;;;;;16.91;100.00;94943.63;4852008;29;20076;-87
2023/05/30 07:04:56;;;;;;;8.93;7.70;;;;;;;16.87;100.00;94956.31;4867947;29;20068;-86
2023/05/30 07:07:22;;;;;;;7.95;7.30;;;;;;;16.89;100.00;94956.91;4863010;29;20045;-86
2023/05/30 07:09:47;;;;;;;8.82;8.07;;;;;;;16.91;100.00;94999.38;4865304;29;20084;-87
2023/05/30 07:12:13;;;;;;;8.57;7.55;;;;;;;16.89;100.00;95003.22;4849288;29;20041;-84
2023/05/30 07:14:39;;;;;;;9.00;7.75;;;;;;;16.86;100.00;94983.50;4866807;29;20044;-86
2023/05/30 07:17:06;;;;;;;9.48;8.20;;;;;;;16.92;100.00;95003.59;4874344;29;20415;-87
2023/05/30 07:19:32;;;;;;;8.43;7.63;;;;;;;17.11;100.00;95021.03;4830801;29;20119;-87
2023/05/30 07:21:57;;;;;;;8.35;7.68;;;;;;;17.34;100.00;95010.00;4855502;29;20043;-88
2023/05/30 07:24:23;;;;;;;11.15;6.97;;;;;;;17.45;100.00;94982.34;4867019;29;20029;-80
2023/05/30 07:26:51;;;;;;;7.93;6.85;;;;;;;17.39;100.00;94957.81;4851169;29;20364;-85
2023/05/30 07:29:17;;;;;;;7.57;6.78;;;;;;;17.45;100.00;94977.91;4840377;29;20120;-84
2023/05/30 07:31:43;;;;;;;9.35;7.13;;;;;;;17.33;100.00;94969.16;4841032;29;20045;-84
2023/05/30 07:34:09;;;;;;;9.10;7.15;;;;;;;17.39;100.00;94965.69;4854390;29;20111;-89
2023/05/30 07:36:34;;;;;;;6.88;6.35;;;;;;;17.58;100.00;94956.09;4869997;29;20032;-87
2023/05/30 07:39:00;;;;;;;7.82;6.85;;;;;;;17.74;100.00;94955.56;4840066;29;20033;-89
2023/05/30 07:41:26;;;;;;;8.23;7.53;;;;;;;17.78;100.00;94959.38;4867558;29;20076;-88
2023/05/30 07:43:51;;;;;;;8.93;8.02;;;;;;;17.74;100.00;94955.56;4865200;29;20031;-82
2023/05/30 07:46:18;;;;;;;8.02;7.32;;;;;;;17.77;100.00;94942.03;4850362;29;20088;-87
2023/05/30 07:48:43;;;;;;;7.85;7.05;;;;;;;17.90;100.00;94918.34;4854350;29;20477;-88
2023/05/30 07:51:10;;;;;;;8.07;7.30;;;;;;;18.07;100.00;94921.19;4839263;29;20588;-88
2023/05/30 07:53:36;;;;;;;10.90;7.38;;;;;;;18.07;100.00;94919.38;4863781;29;20032;-85
2023/05/30 07:56:02;;;;;;;7.97;7.20;;;;;;;17.97;100.00;94924.31;4864565;29;20124;-86
2023/05/30 07:58:28;;;;;;;8.27;7.47;;;;;;;17.93;100.00;94912.66;4861073;29;20044;-89
2023/05/30 08:00:54;;;;;;;8.10;7.30;;;;;;;17.77;100.00;94908.78;4866812;29;20040;-86
2023/05/30 08:03:19;;;;;;;7.85;7.10;;;;;;;17.98;100.00;94912.03;4854051;29;20055;-84
2023/05/30 08:05:46;;;;;;;7.07;6.47;;;;;;;18.04;100.00;94921.63;4869872;29;20086;-86
2023/05/30 08:08:12;;;;;;;7.47;6.70;;;;;;;18.15;100.00;94923.53;4870910;29;20491;-86
2023/05/30 08:10:38;;;;;;;8.18;7.07;;;;;;;18.19;100.00;94909.75;4869967;29;20087;-89
2023/05/30 08:13:03;;;;;;;7.38;6.82;;;;;;;18.18;100.00;94910.78;4849100;29;20531;-86
2023/05/30 08:15:29;;;;;;;9.00;6.82;;;;;;;17.84;100.00;94882.50;4866795;29;20029;-86
2023/05/30 08:17:56;;;;;;;7.90;7.13;;;;;;;18.05;100.00;94897.81;4854156;29;20034;-91
2023/05/30 08:20:22;;;;;;;7.15;6.45;;;;;;;18.18;100.00;94891.63;4869661;29;20415;-91
2023/05/30 08:22:48;;;;;;;10.60;7.22;;;;;;;18.56;100.00;94902.69;4870692;29;20175;-87
2023/05/30 08:25:13;;;;;;;7.97;7.28;;;;;;;18.56;100.00;94888.78;4870632;29;20685;-88
2023/05/30 08:27:39;;;;;;;7.35;6.65;;;;;;;18.81;100.00;94900.78;4842312;29;20029;-86
2023/05/30 08:30:06;;;;;;;7.63;7.03;;;;;;;18.86;100.00;94889.59;4868600;29;20045;-85
2023/05/30 08:32:32;;;;;;;7.38;6.63;;;;;;;18.90;100.00;94872.38;4868154;29;20048;-87
2023/05/30 08:34:58;;;;;;;7.25;6.60;;;;;;;18.99;100.00;94868.41;4850683;29;20579;-85
2023/05/30 08:37:23;;;;;;;7.47;6.72;;;;;;;19.29;100.00;94870.97;4861865;29;20020;-87
2023/05/30 08:39:49;;;;;;;6.88;6.38;;;;;;;19.12;100.00;94865.59;4863306;29;20037;-90
2023/05/30 08:42:15;;;;;;;8.18;5.90;;;;;;;19.24;100.00;94861.16;4836376;29;20281;-85
2023/05/30 08:44:40;;;;;;;7.97;5.80;;;;;;;19.17;100.00;94857.03;4865630;29;20419;-93
2023/05/30 08:47:12;;;;;;;6.35;5.85;;;;;;;19.11;100.00;94860.53;4846813;29;20033;-89
2023/05/30 08:49:40;;;;;;;6.53;5.63;;;;;;;19.31;100.00;94871.56;4834376;29;20050;-83
2023/05/30 08:52:13;;;;;;;5.90;5.40;;;;;;;19.20;100.00;94853.97;4842960;29;20115;-81
2023/05/30 08:54:49;;;;;;;4.93;4.35;;;;;;;19.45;100.00;94854.59;4866541;29;20115;-82
2023/05/30 08:57:23;;;;;;;5.05;4.65;;;;;;;19.25;100.00;94839.13;4867764;29;20205;-87
2023/05/30 08:59:49;;;;;;;4.28;3.83;;;;;;;18.92;100.00;94839.63;4845134;29;20082;-86
2023/05/30 09:02:15;;;;;;;5.53;3.97;;;;;;;19.74;100.00;94839.72;4849049;29;20060;-89
2023/05/30 09:04:42;;;;;;;4.63;4.22;;;;;;;19.97;100.00;94829.19;4851850;29;20033;-87
2023/05/30 09:07:08;;;;;;;4.47;4.07;;;;;;;19.93;100.00;94833.31;4863234;29;20075;-85
2023/05/30 09:09:33;;;;;;;4.25;3.95;;;;;;;19.57;100.00;94846.69;4859690;29;20475;-81
2023/05/30 09:11:59;;;;;;;5.13;4.72;;;;;;;18.80;100.00;94854.53;4837345;29;20035;-85
2023/05/30 09:14:25;;;;;;;4.35;3.97;;;;;;;19.07;100.00;94856.78;4858942;29;20044;-86
2023/05/30 09:16:50;;;;;;;4.22;3.83;;;;;;;19.43;100.00;94844.28;4862028;29;20047;-87
2023/05/30 09:19:16;;;;;;;4.70;4.25;;;;;;;19.56;100.00;94839.84;4866656;29;20040;-85
2023/05/30 09:21:42;;;;;;;4.80;4.28;;;;;;;19.68;100.00;94845.91;4869764;29;20148;-84
2023/05/30 09:24:07;;;;;;;5.20;4.70;;;;;;;19.45;100.00;94833.56;4854726;29;20111;-84
2023/05/30 09:26:33;;;;;;;4.45;4.05;;;;;;;19.52;100.00;94846.59;4855174;29;20508;-85
2023/05/30 09:29:11;;;;;;;4.93;4.45;;;;;;;19.53;100.00;94848.19;4883892;29;20052;-85
2023/05/30 09:31:37;;;;;;;6.10;4.32;;;;;;;18.97;100.00;94835.53;4864553;29;20040;-82
2023/05/30 09:34:03;;;;;;;5.07;4.68;;;;;;;18.88;100.00;94869.16;4865810;29;20551;-83
2023/05/30 09:36:29;;;;;;;5.03;4.53;;;;;;;19.05;100.00;94853.56;4882439;29;20128;-87
2023/05/30 09:39:04;;;;;;;7.00;5.40;;;;;;;18.91;100.00;94858.25;4851176;29;20041;-81
2023/05/30 09:41:31;;;;;;;4.93;4.53;;;;;;;19.57;100.00;94859.84;4849982;29;20025;-83
2023/05/30 09:43:57;;;;;;;5.13;4.60;;;;;;;19.78;100.00;94844.28;4845585;29;20037;-86
2023/05/30 09:46:24;;;;;;;5.10;4.38;;;;;;;20.03;100.00;94835.34;4852222;29;20025;-85
2023/05/30 09:48:50;;;;;;;4.40;4.10;;;;;;;20.11;100.00;94841.03;4860681;29;20049;-88
2023/05/30 09:51:17;;;;;;;4.78;4.07;;;;;;;20.12;100.00;94839.22;4842463;29;20028;-85
2023/05/30 09:54:03;;;;;;;5.15;4.75;;;;;;;20.33;100.00;94847.31;4876798;29;20029;-83
2023/05/30 09:56:48;;;;;;;5.50;5.07;;;;;;;20.29;100.00;94840.13;4841767;29;20029;-84
2023/05/30 09:59:14;;;;;;;5.50;5.00;;;;;;;20.55;100.00;94842.19;4844736;29;20064;-86
2023/05/30 10:01:41;;;;;;;4.93;4.53;;;;;;;20.65;100.00;94836.31;4839437;29;20276;-81
2023/05/30 10:04:17;;;;;;;4.40;4.10;;;;;;;20.59;100.00;94837.25;4844295;29;20162;-78
2023/05/30 10:06:47;;;;;;;7.32;4.38;;;;;;;20.81;100.00;94832.91;4845580;29;20033;-81
2023/05/30 10:09:14;;;;;;;6.93;4.32;;;;;;;20.74;100.00;94830.44;4847599;29;20116;-81
2023/05/30 10:11:41;;;;;;;4.18;3.88;;;;;;;20.89;100.00;94829.91;4843360;29;20434;-82
2023/05/30 10:14:08;;;;;;;4.22;3.83;;;;;;;20.80;100.00;94816.34;4848571;29;20125;-82
2023/05/30 10:16:36;;;;;;;5.80;3.78;;;;;;;20.78;100.00;94815.75;4848938;29;20082;-83
2023/05/30 10:19:06;;;;;;;3.97;3.67;;;;;;;20.97;100.00;94811.06;4871742;29;20043;-83
2023/05/30 10:21:34;;;;;;;4.72;4.03;;;;;;;21.22;100.00;94813.38;4837547;29;20124;-81
2023/05/30 10:24:01;;;;;;;4.90;3.80;;;;;;;21.26;100.00;94807.38;4849918;29;20525;-80
2023/05/30 10:26:32;;;;;;;4.93;3.67;;;;;;;21.85;100.00;94818.25;4851217;29;20060;-85
2023/05/30 10:28:58;;;;;;;5.85;3.40;;;;;;;21.88;100.00;94815.13;4851605;29;20041;-81
2023/05/30 10:31:25;;;;;;;3.60;3.25;;;;;;;21.82;100.00;94816.91;4858890;29;20381;-83
2023/05/30 10:33:51;;;;;;;4.60;4.13;;;;;;;21.32;100.00;94803.78;4848891;29;20025;-82
2023/05/30 10:36:17;;;;;;;3.72;3.42;;;;;;;21.47;100.00;94809.28;4864731;29;20040;-81
2023/05/30 10:38:50;;;;;;;3.10;2.88;;;;;;;21.65;100.00;94802.13;4856862;29;20028;-83
2023/05/30 10:41:26;;;;;;;2.88;2.67;;;;;;;21.75;100.00;94799.66;4844638;29;20108;-82
2023/05/30 10:44:00;;;;;;;2.42;2.22;;;;;;;21.47;100.00;94800.59;4848694;29;20030;-83
2023/05/30 10:47:05;;;;;;;3.08;2.78;;;;;;;21.64;100.00;94793.41;4839905;29;20053;-84
2023/05/30 10:49:31;;;;;;;5.13;1.90;;;;;;;21.61;100.00;94787.88;4867530;29;20033;-85
2023/05/30 10:52:05;;;;;;;5.57;2.33;;;;;;;21.31;100.00;94780.31;4866140;29;20044;-84
2023/05/30 10:54:32;;;;;;;4.35;2.22;;;;;;;21.48;100.00;94784.50;4854137;29;20028;-86
2023/05/30 10:56:58;;;;;;;5.32;3.00;;;;;;;21.59;100.00;94779.38;4870266;29;20044;-87
2023/05/30 10:59:24;;;;;;;8.23;2.03;;;;;;;21.31;100.00;94777.69;4865186;29;20044;-88
2023/05/30 11:02:02;;;;;;;1.85;1.75;;;;;;;21.53;100.00;94765.34;4862174;29;20048;-84
2023/05/30 11:04:35;;;;;;;3.67;1.67;;;;;;;21.43;100.00;94760.72;4886291;29;20551;-85
2023/05/30 11:07:03;;;;;;;1.70;1.60;;;;;;;21.67;100.00;94758.69;4870539;29;20043;-89
2023/05/30 11:09:29;;;;;;;1.73;1.63;;;;;;;21.48;100.00;94762.66;4870328;29;20079;-93
2023/05/30 11:11:56;;;;;;;2.35;2.10;;;;;;;21.35;100.00;94753.22;4857019;29;20068;-91
2023/05/30 11:14:30;;;;;;;4.55;1.80;;;;;;;21.49;100.00;94756.31;4858828;29;20037;-91
2023/05/30 11:17:05;;;;;;;1.52;1.42;;;;;;;21.42;100.00;94748.56;4852217;29;20080;-91
2023/05/30 11:19:40;;;;;;;1.80;1.70;;;;;;;21.45;100.00;94742.03;4852539;29;20092;-88
2023/05/30 11:22:16;;;;;;;3.22;1.75;;;;;;;21.30;100.00;94737.34;4852428;29;20235;-93
2023/05/30 11:24:42;;;;;;;1.80;1.70;;;;;;;21.21;100.00;94736.16;4856128;29;20028;-91
2023/05/30 11:27:13;;;;;;;3.00;1.90;;;;;;;21.04;100.00;94730.06;4878411;29;20029;-89
2023/05/30 11:29:49;;;;;;;1.65;1.55;;;;;;;21.38;100.00;94713.19;4852131;29;20117;-89
2023/05/30 11:32:19;;;;;;;1.73;1.63;;;;;;;21.77;100.00;94710.56;4885843;29;20035;-91
2023/05/30 11:34:46;;;;;;;2.05;1.88;;;;;;;21.78;100.00;94707.66;4871199;29;20033;-86
2023/05/30 11:37:11;;;;;;;2.35;1.58;;;;;;;21.90;100.00;94702.28;4871705;29;20072;-90
2023/05/30 11:39:37;;;;;;;1.67;1.58;;;;;;;22.20;100.00;94704.44;4869325;29;20083;-83
2023/05/30 11:42:03;;;;;;;1.88;1.20;;;;;;;22.32;100.00;94697.19;4862090;29;20543;-84
2023/05/30 11:44:32;;;;;;;1.30;1.20;;;;;;;22.48;100.00;94691.00;4865371;29;20503;-84
2023/05/30 11:46:58;;;;;;;3.08;1.30;;;;;;;22.62;100.00;94686.91;4835814;29;20132;-88
2023/05/30 11:49:25;;;;;;;1.30;1.20;;;;;;;22.65;100.00;94693.50;4880222;29;20036;-89
2023/05/30 11:51:51;;;;;;;1.08;1.00;;;;;;;22.12;97.90;94697.00;4869662;29;20392;-90
2023/05/30 11:54:17;;;;;;;1.70;1.20;;;;;;;22.30;97.01;94688.72;4870960;29;20546;-90
2023/05/30 11:56:42;;;;;;;1.02;0.80;;;;;;;22.37;85.54;94684.84;4885111;29;20029;-83
2023/05/30 11:59:08;;;;;;;2.15;1.05;;;;;;;22.60;81.59;94670.53;4884413;29;20057;-85
2023/05/30 12:01:33;;;;;;;1.48;0.80;;;;;;;22.74;80.93;94670.91;4877322;29;20045;-84
2023/05/30 12:03:59;;;;;;;1.50;0.70;;;;;;;22.54;78.54;94668.84;4869876;29;20095;-82
2023/05/30 12:06:24;;;;;;;1.13;0.75;;;;;;;22.98;84.62;94659.72;4849145;29;20033;-83
2023/05/30 12:08:50;;;;;;;0.63;0.60;;;;;;;23.08;72.41;94649.22;4851122;29;20681;-83
2023/05/30 12:11:16;;;;;;;0.57;0.55;;;;;;;23.22;79.13;94654.84;4848478;29;20037;-85
2023/05/30 12:13:42;;;;;;;0.80;0.70;;;;;;;22.90;75.90;94659.41;4852841;29;20036;-82
2023/05/30 12:16:10;;;;;;;0.50;0.50;;;;;;;22.86;76.39;94656.47;4867964;29;20522;-84
2023/05/30 12:18:35;;;;;;;1.27;1.00;;;;;;;22.64;80.58;94668.94;4864857;29;20064;-82
2023/05/30 12:21:01;;;;;;;2.70;1.88;;;;;;;21.98;86.32;94662.28;4874541;29;20136;-88
2023/05/30 12:23:27;;;;;;;2.95;2.30;;;;;;;21.65;94.26;94667.66;4868617;29;20119;-84
2023/05/30 12:25:53;;;;;;;2.53;2.15;;;;;;;21.78;94.30;94662.81;4867211;29;20111;-90
2023/05/30 12:28:19;;;;;;;3.78;2.20;;;;;;;21.71;94.18;94664.03;4885460;29;20036;-91
2023/05/30 12:30:44;;;;;;;4.50;2.10;;;;;;;21.26;89.46;94659.00;4866646;29;20029;-85
2023/05/30 12:33:17;;;;;;;4.63;2.20;;;;;;;21.17;94.79;94656.00;4868582;29;20044;-89
2023/05/30 12:35:44;;;;;;;2.85;2.00;;;;;;;21.22;96.31;94657.94;4884540;29;20168;-82
2023/05/30 12:38:12;;;;;;;5.93;2.20;;;;;;;21.07;100.00;94653.19;4868242;29;20849;-74
2023/05/30 12:40:50;;;;;;;4.38;2.30;;;;;;;20.71;100.00;94649.25;4884175;29;20028;-75
2023/05/30 12:43:24;;;;;;;2.80;2.60;;;;;;;20.94;100.00;94645.66;4870411;29;20039;-80
2023/05/30 12:45:49;;;;;;;4.45;2.60;;;;;;;20.85;99.75;94641.84;4861765;29;20479;-86
2023/05/30 12:48:15;;;;;;;3.13;2.83;;;;;;;21.76;95.27;94643.03;4840009;29;20081;-80
2023/05/30 12:50:40;;;;;;;4.35;2.25;;;;;;;22.10;92.30;94633.91;4879186;29;20025;-83
2023/05/30 12:53:05;;;;;;;5.28;2.47;;;;;;;22.24;91.12;94627.19;4885619;29;20055;-85
2023/05/30 12:55:31;;;;;;;2.67;2.47;;;;;;;22.96;91.90;94627.47;4846734;29;20407;-88
2023/05/30 12:57:57;;;;;;;2.50;1.77;;;;;;;22.62;85.30;94620.06;4869994;29;20026;-90
2023/05/30 13:00:23;;;;;;;3.08;1.98;;;;;;;22.68;89.67;94621.75;4849739;29;20414;-89
2023/05/30 13:02:48;;;;;;;5.68;2.05;;;;;;;22.45;85.61;94618.38;4849460;29;20052;-82
2023/05/30 13:05:14;;;;;;;2.75;2.00;;;;;;;21.93;82.84;94612.13;4845869;29;20029;-82
2023/05/30 13:07:39;;;;;;;3.53;1.88;;;;;;;22.05;84.31;94607.47;4857557;29;20017;-83
2023/05/30 13:10:07;;;;;;;4.13;2.08;;;;;;;22.02;88.48;94608.78;4877542;29;20040;-74
2023/05/30 13:12:33;;;;;;;2.05;1.58;;;;;;;22.16;78.41;94601.22;4866903;29;20719;-83
2023/05/30 13:14:58;;;;;;;3.08;1.73;;;;;;;22.48;81.38;94607.31;4847773;29;20609;-85
2023/05/30 13:17:24;;;;;;;4.00;1.77;;;;;;;22.46;81.82;94600.69;4853631;29;20045;-74
2023/05/30 13:19:50;;;;;;;2.00;1.40;;;;;;;22.36;75.93;94601.41;4866177;29;20035;-76
2023/05/30 13:22:16;;;;;;;2.72;1.40;;;;;;;22.19;70.29;94590.19;4863505;29;20033;-82
2023/05/30 13:24:41;;;;;;;1.70;1.30;;;;;;;22.48;67.98;94598.59;4834899;29;20033;-86
2023/05/30 13:27:07;;;;;;;0.98;0.98;;;;;;;22.63;64.40;94592.63;4845926;29;20040;-79
2023/05/30 13:29:33;;;;;;;1.85;1.70;;;;;;;22.92;69.95;94597.34;4845584;29;20029;-86
2023/05/30 13:31:59;;;;;;;2.75;1.77;;;;;;;22.56;69.44;94587.56;4845161;29;20040;-80
2023/05/30 13:34:24;;;;;;;1.63;1.52;;;;;;;22.18;70.33;94596.53;4864866;29;20100;-83
2023/05/30 13:36:49;;;;;;;4.80;1.63;;;;;;;21.69;68.18;94595.75;4873555;29;20032;-91
2023/05/30 13:39:15;;;;;;;2.05;1.67;;;;;;;21.79;73.14;94589.78;4868604;29;20029;-84
2023/05/30 13:41:40;;;;;;;3.22;2.10;;;;;;;21.96;70.99;94586.00;4878324;29;20025;-86
2023/05/30 13:44:06;;;;;;;3.58;2.25;;;;;;;21.82;72.65;94578.75;4873229;29;20102;-86
2023/05/30 13:46:31;;;;;;;2.33;1.88;;;;;;;22.18;72.88;94587.81;4849894;29;20819;-84
2023/05/30 13:48:57;;;;;;;4.68;2.30;;;;;;;22.34;73.15;94585.03;4867893;29;20556;-85
2023/05/30 13:51:23;;;;;;;4.30;2.67;;;;;;;22.04;66.02;94588.22;4850096;29;20081;-91
2023/05/30 13:53:48;;;;;;;2.63;2.42;;;;;;;21.86;66.74;94593.03;4865507;29;20044;-83
2023/05/30 13:56:16;;;;;;;2.40;2.20;;;;;;;21.81;70.06;94591.13;4866128;29;20077;-85
2023/05/30 13:58:43;;;;;;;2.45;2.25;;;;;;;21.90;68.98;94587.03;4844715;29;20111;-92
2023/05/30 14:01:08;;;;;;;2.80;2.28;;;;;;;22.02;69.74;94594.78;4837012;29;20065;-86
2023/05/30 14:03:34;;;;;;;6.20;2.55;;;;;;;21.98;71.57;94594.50;4872044;29;20027;-78
2023/05/30 14:06:00;;;;;;;3.00;2.33;;;;;;;21.69;69.28;94585.22;4886056;29;20060;-84
2023/05/30 14:08:26;;;;;;;3.25;2.50;;;;;;;21.77;71.11;94581.34;4883779;29;20493;-90
2023/05/30 14:10:53;;;;;;;3.00;2.80;;;;;;;21.85;71.02;94591.44;4863497;29;20525;-90
2023/05/30 14:13:18;;;;;;;4.78;2.50;;;;;;;21.77;69.78;94587.38;4871544;29;20120;-81
2023/05/30 14:15:44;;;;;;;3.70;3.03;;;;;;;21.62;70.87;94589.88;4849189;29;20124;-83
2023/05/30 14:18:10;;;;;;;3.38;2.80;;;;;;;21.91;73.36;94580.72;4861218;29;20488;-89
2023/05/30 14:20:35;;;;;;;3.28;2.97;;;;;;;22.13;75.49;94574.56;4870482;29;20499;-93
2023/05/30 14:23:02;;;;;;;3.72;2.55;;;;;;;22.19;78.19;94589.38;4834430;29;20033;-86
2023/05/30 14:25:27;;;;;;;2.50;2.30;;;;;;;22.09;78.11;94576.13;4852169;29;20560;-88
2023/05/30 14:27:53;;;;;;;3.17;2.88;;;;;;;22.14;78.06;94574.31;4851387;29;20036;-81
2023/05/30 14:30:18;;;;;;;2.95;2.65;;;;;;;22.03;80.15;94581.34;4851736;29;20484;-81
2023/05/30 14:32:44;;;;;;;4.93;2.90;;;;;;;21.94;82.58;94587.31;4850052;29;20079;-82
2023/05/30 14:35:13;;;;;;;3.58;2.80;;;;;;;22.04;80.99;94577.66;4851231;29;20036;-82
2023/05/30 14:37:39;;;;;;;2.42;2.22;;;;;;;21.70;89.48;94580.72;4869847;29;20040;-85
2023/05/30 14:40:04;;;;;;;2.47;2.20;;;;;;;21.82;88.94;94582.19;4884464;29;20061;-82
2023/05/30 14:42:30;;;;;;;3.47;2.65;;;;;;;21.57;92.94;94581.91;4872514;29;20044;-85
2023/05/30 14:44:56;;;;;;;2.45;2.08;;;;;;;21.39;94.31;94583.03;4877830;29;20586;-86
2023/05/30 14:47:21;;;;;;;3.28;2.40;;;;;;;21.60;91.13;94584.06;4845114;29;20041;-86
2023/05/30 14:49:47;;;;;;;2.60;2.35;;;;;;;21.65;93.10;94593.84;4847678;29;20021;-87
2023/05/30 14:52:13;;;;;;;3.58;2.05;;;;;;;21.92;87.96;94595.50;4864849;29;20043;-85
2023/05/30 14:54:39;;;;;;;4.28;2.50;;;;;;;21.69;89.35;94597.59;4817598;29;20030;-89
2023/05/30 14:57:05;;;;;;;2.50;2.30;;;;;;;21.65;93.74;94592.00;4836129;29;20602;-87
2023/05/30 14:59:31;;;;;;;3.13;2.65;;;;;;;21.79;91.63;94593.22;4859079;29;20020;-86
2023/05/30 15:01:58;;;;;;;3.05;2.42;;;;;;;21.57;97.61;94596.94;4870391;29;20163;-86
2023/05/30 15:04:23;;;;;;;4.53;2.50;;;;;;;21.42;100.00;94594.91;4882071;29;20032;-88
2023/05/30 15:06:49;;;;;;;2.95;2.75;;;;;;;21.58;96.34;94601.19;4858127;29;20412;-91
2023/05/30 15:09:14;;;;;;;3.10;2.85;;;;;;;21.28;91.28;94599.78;4862124;29;20037;-91
2023/05/30 15:11:40;;;;;;;3.42;3.13;;;;;;;21.45;95.34;94600.50;4855999;29;20040;-87
2023/05/30 15:14:06;;;;;;;3.38;2.53;;;;;;;21.24;96.75;94593.41;4856989;29;20487;-90
2023/05/30 15:16:31;;;;;;;2.97;2.70;;;;;;;21.19;95.43;94595.19;4866704;29;20032;-81
2023/05/30 15:18:57;;;;;;;3.47;3.17;;;;;;;21.23;98.21;94594.44;4863846;29;20112;-92
2023/05/30 15:21:22;;;;;;;8.73;2.95;;;;;;;21.24;98.93;94588.13;4852124;29;20582;-84
2023/05/30 15:23:48;;;;;;;3.08;2.88;;;;;;;21.31;98.18;94594.03;4852783;29;20518;-89
2023/05/30 15:26:13;;;;;;;5.60;3.10;;;;;;;21.34;94.34;94592.72;4879949;29;20037;-86
2023/05/30 15:28:39;;;;;;;3.35;3.05;;;;;;;21.47;95.30;94592.34;4859248;29;20117;-90